Time;durP1;ratioP1;P1;durP2;ratioP2;P2;SDS_P1;SDS_P2;PMS_P1;PMS_P2;Temp;Humidity;BMP_temperature;BMP_pressure;BME280_temperature;BME280_humidity;BME280_pressure;Samples;Min_cycle;Max_cycle;Signal;HPM_P1;HPM_P2
2023/06/26 00:02:17;;;;;;;13.27;8.00;;;23.30;99.90;;;;;;5052672;28;20705;-73
2023/06/26 00:04:44;;;;;;;9.23;6.70;;;23.30;99.90;;;;;;5052118;28;20736;-68
2023/06/26 00:07:11;;;;;;;10.35;7.15;;;23.20;99.90;;;;;;5052417;28;20683;-70
2023/06/26 00:09:38;;;;;;;6.65;6.00;;;23.10;99.90;;;;;;5051663;28;20242;-72
2023/06/26 00:12:06;;;;;;;7.95;7.15;;;23.20;99.90;;;;;;5052287;28;20242;-70
2023/06/26 00:14:32;;;;;;;13.35;8.10;;;23.20;99.90;;;;;;5051457;28;20690;-69
2023/06/26 00:17:01;;;;;;;7.15;6.22;;;23.10;99.90;;;;;;5052253;28;20773;-69
2023/06/26 00:19:28;;;;;;;11.93;6.80;;;23.10;99.90;;;;;;5051604;28;20246;-67
2023/06/26 00:21:55;;;;;;;10.60;7.40;;;23.10;99.90;;;;;;5050116;28;20238;-67
2023/06/26 00:24:21;;;;;;;7.20;6.45;;;23.10;99.90;;;;;;5051969;28;20645;-71
2023/06/26 00:26:49;;;;;;;8.82;7.32;;;23.00;99.90;;;;;;5051668;28;20389;-67
2023/06/26 00:29:16;;;;;;;8.82;6.32;;;23.00;99.90;;;;;;5051996;28;20203;-67
2023/06/26 00:31:43;;;;;;;8.32;7.00;;;22.90;99.90;;;;;;5051774;28;20264;-68
2023/06/26 00:34:11;;;;;;;10.43;7.00;;;23.00;99.90;;;;;;5051858;28;20249;-67
2023/06/26 00:36:38;;;;;;;11.20;7.28;;;23.00;99.90;;;;;;5051325;28;20628;-67
2023/06/26 00:39:05;;;;;;;8.77;7.22;;;23.00;99.90;;;;;;5051732;28;20241;-67
2023/06/26 00:41:32;;;;;;;16.73;7.20;;;23.00;99.90;;;;;;5051188;28;20257;-69
2023/06/26 00:43:59;;;;;;;7.90;6.35;;;23.00;99.90;;;;;;5051506;28;20264;-69
2023/06/26 00:46:26;;;;;;;10.07;7.50;;;23.00;99.90;;;;;;5051233;28;20270;-69
2023/06/26 00:48:55;;;;;;;7.90;7.10;;;22.90;99.90;;;;;;5051650;28;20697;-68
2023/06/26 00:51:23;;;;;;;6.90;6.18;;;22.90;99.90;;;;;;5051043;28;20658;-67
2023/06/26 00:53:50;;;;;;;8.00;7.28;;;22.90;99.90;;;;;;5051430;28;20240;-67
2023/06/26 00:56:19;;;;;;;8.38;6.40;;;22.80;99.90;;;;;;5051215;28;20249;-67
2023/06/26 00:58:46;;;;;;;8.02;7.28;;;22.90;99.90;;;;;;5051302;28;20578;-67
2023/06/26 01:01:17;;;;;;;10.15;7.10;;;22.80;99.90;;;;;;5051851;28;20241;-67
2023/06/26 01:03:45;;;;;;;10.35;7.35;;;22.90;99.90;;;;;;5051392;28;20214;-67
2023/06/26 01:06:14;;;;;;;9.98;6.75;;;22.80;99.90;;;;;;5051203;28;20273;-67
2023/06/26 01:08:43;;;;;;;7.55;6.75;;;22.90;99.90;;;;;;5050585;28;20246;-67
2023/06/26 01:11:11;;;;;;;10.00;7.55;;;22.90;99.90;;;;;;5051025;28;20210;-67
2023/06/26 01:13:39;;;;;;;7.18;6.47;;;22.90;99.90;;;;;;5050905;28;20207;-67
2023/06/26 01:16:06;;;;;;;7.60;6.68;;;22.90;99.90;;;;;;5050933;28;20218;-67
2023/06/26 01:18:35;;;;;;;11.57;7.65;;;22.80;99.90;;;;;;5050600;28;20234;-68
2023/06/26 01:21:04;;;;;;;8.18;6.57;;;22.80;99.90;;;;;;5050719;28;20207;-68
2023/06/26 01:23:38;;;;;;;7.97;6.75;;;22.80;99.90;;;;;;5050369;28;20683;-67
2023/06/26 01:26:18;;;;;;;8.95;7.07;;;22.80;99.90;;;;;;5050340;28;20269;-67
2023/06/26 01:28:45;;;;;;;10.35;7.45;;;22.80;99.90;;;;;;5051295;28;20206;-67
2023/06/26 01:31:14;;;;;;;9.10;7.68;;;22.80;99.90;;;;;;5050871;28;20245;-67
2023/06/26 01:33:42;;;;;;;8.63;7.28;;;22.80;99.90;;;;;;5050302;28;20242;-67
2023/06/26 01:36:09;;;;;;;8.50;7.60;;;22.80;99.90;;;;;;5050357;28;20261;-67
2023/06/26 01:38:36;;;;;;;7.22;6.47;;;22.80;99.90;;;;;;5050645;28;20249;-73
2023/06/26 01:41:04;;;;;;;9.05;7.60;;;22.80;99.90;;;;;;5050313;28;20664;-68
2023/06/26 01:43:40;;;;;;;11.88;7.53;;;22.80;99.90;;;;;;5050205;28;20234;-67
2023/06/26 01:46:10;;;;;;;7.45;6.65;;;22.80;99.90;;;;;;5050472;28;20281;-70
2023/06/26 01:48:44;;;;;;;8.80;7.50;;;22.80;99.90;;;;;;5050187;28;20257;-71
2023/06/26 01:51:15;;;;;;;11.30;7.35;;;22.80;99.90;;;;;;5050545;28;20256;-70
2023/06/26 01:53:48;;;;;;;9.02;7.10;;;22.80;99.90;;;;;;5050101;28;20235;-71
2023/06/26 01:56:19;;;;;;;7.53;6.75;;;22.70;99.90;;;;;;5050561;28;20260;-71
2023/06/26 01:58:49;;;;;;;8.20;6.32;;;22.70;99.90;;;;;;5050770;28;20207;-70
2023/06/26 02:01:16;;;;;;;11.27;7.57;;;22.70;99.90;;;;;;5050756;28;20207;-68
2023/06/26 02:03:43;;;;;;;8.10;7.05;;;22.70;99.90;;;;;;5050194;28;20227;-66
2023/06/26 02:06:10;;;;;;;9.82;7.20;;;22.60;99.90;;;;;;5050178;28;20249;-69
2023/06/26 02:08:37;;;;;;;10.43;7.70;;;22.70;99.90;;;;;;5049409;28;20234;-67
2023/06/26 02:11:04;;;;;;;8.13;7.30;;;22.70;99.90;;;;;;5050054;28;20242;-69
2023/06/26 02:13:31;;;;;;;8.02;7.05;;;22.70;99.90;;;;;;5049567;28;20652;-68
2023/06/26 02:15:59;;;;;;;8.80;7.90;;;22.60;99.90;;;;;;5050564;28;20234;-68
2023/06/26 02:18:26;;;;;;;10.00;7.43;;;22.60;99.90;;;;;;5049820;28;20253;-69
2023/06/26 02:20:53;;;;;;;13.10;8.05;;;22.60;99.90;;;;;;5036542;28;20650;-69
2023/06/26 02:23:19;;;;;;;8.70;7.57;;;22.60;99.90;;;;;;5049664;28;20242;-69
2023/06/26 02:25:46;;;;;;;9.48;7.70;;;22.60;99.90;;;;;;5050284;28;20258;-68
2023/06/26 02:28:13;;;;;;;9.85;7.50;;;22.60;99.90;;;;;;5050430;28;20705;-68
2023/06/26 02:30:40;;;;;;;10.85;7.93;;;22.60;99.90;;;;;;5049724;28;20206;-70
2023/06/26 02:33:09;;;;;;;11.65;7.55;;;22.60;99.90;;;;;;5049832;28;20246;-69
2023/06/26 02:35:36;;;;;;;8.05;7.25;;;22.60;99.90;;;;;;5050055;28;20265;-70
2023/06/26 02:38:02;;;;;;;9.32;7.43;;;22.60;99.90;;;;;;5049800;28;20243;-68
2023/06/26 02:40:29;;;;;;;10.40;7.95;;;22.50;99.90;;;;;;5049632;28;20243;-70
2023/06/26 02:42:56;;;;;;;7.78;6.75;;;22.40;99.90;;;;;;5050002;28;20207;-68
2023/06/26 02:45:23;;;;;;;9.52;7.40;;;22.50;99.90;;;;;;5049916;28;20242;-70
2023/06/26 02:47:50;;;;;;;9.40;7.95;;;22.50;99.90;;;;;;5049752;28;20659;-68
2023/06/26 02:50:18;;;;;;;10.30;8.02;;;22.40;99.90;;;;;;5050429;28;20230;-70
2023/06/26 02:52:47;;;;;;;10.13;7.22;;;22.40;99.90;;;;;;5049933;28;20257;-70
2023/06/26 02:55:14;;;;;;;9.82;8.00;;;22.40;99.90;;;;;;5049849;28;20207;-68
2023/06/26 02:57:41;;;;;;;8.55;7.65;;;22.40;99.90;;;;;;5049772;28;20292;-69
2023/06/26 03:00:11;;;;;;;12.32;8.35;;;22.40;99.90;;;;;;5049819;28;20238;-70
2023/06/26 03:02:38;;;;;;;8.35;6.50;;;22.40;99.90;;;;;;5049603;28;20234;-68
2023/06/26 03:05:05;;;;;;;9.50;7.97;;;22.40;99.90;;;;;;5049784;28;20257;-69
2023/06/26 03:07:33;;;;;;;9.18;7.80;;;22.40;99.90;;;;;;5049078;28;20266;-70
2023/06/26 03:10:00;;;;;;;12.68;8.45;;;22.40;99.90;;;;;;5049769;28;20238;-70
2023/06/26 03:12:27;;;;;;;12.05;7.60;;;22.40;99.90;;;;;;5049446;28;20238;-69
2023/06/26 03:14:54;;;;;;;8.02;7.03;;;22.40;99.90;;;;;;5049809;28;20206;-70
2023/06/26 03:17:21;;;;;;;12.25;8.23;;;22.40;99.90;;;;;;5049225;28;20645;-71
2023/06/26 03:19:48;;;;;;;9.98;8.23;;;22.40;99.90;;;;;;5049682;28;20210;-70
2023/06/26 03:22:15;;;;;;;9.30;7.43;;;22.40;99.90;;;;;;5051881;28;20242;-70
2023/06/26 03:24:45;;;;;;;11.60;8.55;;;22.40;99.90;;;;;;5053100;28;20615;-68
2023/06/26 03:27:12;;;;;;;10.57;8.52;;;22.40;99.90;;;;;;5053374;28;20241;-68
2023/06/26 03:29:39;;;;;;;9.85;7.78;;;22.30;99.90;;;;;;5052714;28;20202;-68
2023/06/26 03:32:07;;;;;;;12.32;7.97;;;22.30;99.90;;;;;;5053215;28;20235;-68
2023/06/26 03:34:34;;;;;;;8.30;7.22;;;22.20;99.90;;;;;;5052636;28;20260;-68
2023/06/26 03:37:01;;;;;;;12.00;8.23;;;22.20;99.90;;;;;;5052774;28;20242;-73
2023/06/26 03:39:29;;;;;;;9.10;7.20;;;22.20;99.90;;;;;;5052606;28;20207;-68
2023/06/26 03:42:00;;;;;;;10.30;7.53;;;22.30;99.90;;;;;;5052977;28;20207;-68
2023/06/26 03:44:27;;;;;;;10.02;7.18;;;22.30;99.90;;;;;;5052465;28;20211;-67
2023/06/26 03:46:54;;;;;;;10.13;7.82;;;22.30;99.90;;;;;;5052837;28;20312;-70
2023/06/26 03:49:21;;;;;;;10.68;7.55;;;22.30;99.90;;;;;;5052324;28;20235;-68
2023/06/26 03:51:48;;;;;;;11.85;9.15;;;22.20;99.90;;;;;;5052326;28;20250;-68
2023/06/26 03:54:15;;;;;;;13.95;8.75;;;22.30;99.90;;;;;;5053140;28;20242;-67
2023/06/26 03:56:42;;;;;;;11.45;8.00;;;22.30;99.90;;;;;;5052222;28;20207;-67
2023/06/26 03:59:11;;;;;;;9.95;7.68;;;22.30;99.90;;;;;;5043409;28;20235;-70
2023/06/26 04:01:38;;;;;;;14.40;8.25;;;22.30;99.90;;;;;;5047380;28;20246;-70
2023/06/26 04:04:05;;;;;;;11.18;7.50;;;22.20;99.90;;;;;;5052321;28;20210;-67
2023/06/26 04:06:33;;;;;;;11.02;7.35;;;22.20;99.90;;;;;;5051911;28;20253;-68
2023/06/26 04:09:00;;;;;;;8.85;7.68;;;22.30;99.90;;;;;;5052466;28;20209;-70
2023/06/26 04:11:27;;;;;;;13.00;7.88;;;22.20;99.90;;;;;;5052010;28;20356;-69
2023/06/26 04:13:56;;;;;;;8.40;7.60;;;22.20;99.90;;;;;;5052344;28;20242;-70
2023/06/26 04:16:26;;;;;;;10.98;8.68;;;22.20;99.90;;;;;;5051649;28;20264;-69
2023/06/26 04:18:55;;;;;;;8.75;7.82;;;22.20;99.90;;;;;;5052169;28;20256;-70
2023/06/26 04:21:24;;;;;;;10.18;8.82;;;22.10;99.90;;;;;;5051805;28;20249;-71
2023/06/26 04:23:51;;;;;;;13.77;8.25;;;22.10;99.90;;;;;;5052094;28;20256;-71
2023/06/26 04:26:18;;;;;;;13.18;7.40;;;22.10;99.90;;;;;;5052061;28;20237;-70
2023/06/26 04:28:45;;;;;;;12.60;7.60;;;22.10;99.90;;;;;;5052245;28;20206;-69
2023/06/26 04:31:12;;;;;;;9.63;8.48;;;22.00;99.90;;;;;;5051976;28;20211;-71
2023/06/26 04:33:40;;;;;;;8.75;7.45;;;22.00;99.90;;;;;;5051400;28;20235;-68
2023/06/26 04:36:07;;;;;;;9.73;7.07;;;22.00;99.90;;;;;;5046964;28;20659;-67
2023/06/26 04:38:35;;;;;;;11.52;7.97;;;22.00;99.90;;;;;;5051291;28;20250;-68
2023/06/26 04:41:04;;;;;;;9.63;8.00;;;22.00;99.90;;;;;;5045580;28;20701;-69
2023/06/26 04:43:30;;;;;;;8.35;6.10;;;22.10;99.90;;;;;;5051001;28;20667;-67
2023/06/26 04:45:57;;;;;;;8.55;5.75;;;22.10;99.90;;;;;;5051632;28;20226;-67
2023/06/26 04:48:24;;;;;;;10.55;7.60;;;22.00;99.90;;;;;;5050863;28;20278;-72
2023/06/26 04:50:53;;;;;;;7.47;6.50;;;21.90;99.90;;;;;;5051262;28;20234;-68
2023/06/26 04:53:21;;;;;;;8.60;6.72;;;21.90;99.90;;;;;;5050571;28;20257;-67
2023/06/26 04:55:48;;;;;;;7.45;6.80;;;21.90;99.90;;;;;;5050782;28;20203;-70
2023/06/26 04:58:16;;;;;;;8.63;7.20;;;22.00;99.90;;;;;;5051394;28;20659;-68
2023/06/26 05:00:43;;;;;;;8.73;6.93;;;22.00;99.90;;;;;;5050919;28;20210;-71
2023/06/26 05:03:10;;;;;;;8.88;6.97;;;22.00;99.90;;;;;;5050774;28;20305;-71
2023/06/26 05:05:37;;;;;;;8.82;6.50;;;22.00;99.90;;;;;;5050744;28;20246;-70
2023/06/26 05:08:16;;;;;;;8.50;6.68;;;22.00;99.90;;;;;;5051141;28;20274;-72
2023/06/26 05:10:43;;;;;;;8.20;6.80;;;22.00;99.90;;;;;;5047800;28;20718;-71
2023/06/26 05:13:11;;;;;;;6.93;5.80;;;21.90;99.90;;;;;;5051245;28;20207;-73
2023/06/26 05:15:38;;;;;;;9.02;6.22;;;21.80;99.90;;;;;;5050514;28;20245;-71
2023/06/26 05:18:06;;;;;;;7.50;6.45;;;21.80;99.90;;;;;;5049818;28;20294;-69
2023/06/26 05:20:33;;;;;;;9.90;6.80;;;21.70;99.90;;;;;;5048456;28;20203;-69
2023/06/26 05:23:01;;;;;;;8.10;6.25;;;21.80;99.90;;;;;;5047716;28;20234;-71
2023/06/26 05:25:30;;;;;;;8.13;6.45;;;21.90;99.90;;;;;;5049397;28;20234;-73
2023/06/26 05:27:58;;;;;;;6.88;6.22;;;22.00;99.90;;;;;;5041721;28;20258;-71
2023/06/26 05:30:26;;;;;;;10.63;6.45;;;22.00;99.90;;;;;;5042878;28;20214;-68
2023/06/26 05:32:54;;;;;;;10.02;6.20;;;22.00;99.90;;;;;;5047501;28;20243;-68
2023/06/26 05:35:22;;;;;;;15.25;6.05;;;21.70;99.90;;;;;;5048246;28;20261;-69
2023/06/26 05:37:50;;;;;;;7.18;6.38;;;21.80;99.90;;;;;;5050272;28;20202;-71
2023/06/26 05:40:18;;;;;;;8.98;7.00;;;22.00;99.90;;;;;;5050635;28;20207;-69
2023/06/26 05:42:47;;;;;;;6.70;5.93;;;22.00;99.90;;;;;;5050522;28;20222;-69
2023/06/26 05:45:15;;;;;;;7.32;5.93;;;22.00;99.90;;;;;;5050116;28;20260;-69
2023/06/26 05:47:41;;;;;;;8.38;7.10;;;22.00;99.90;;;;;;5049791;28;20266;-73
2023/06/26 05:50:10;;;;;;;7.70;5.80;;;22.10;99.90;;;;;;5050292;28;20718;-68
2023/06/26 05:52:38;;;;;;;7.20;5.85;;;22.10;99.90;;;;;;5048267;28;20665;-72
2023/06/26 05:55:06;;;;;;;9.48;7.70;;;22.00;99.90;;;;;;5047709;28;20207;-73
2023/06/26 05:57:35;;;;;;;6.82;6.13;;;22.10;99.90;;;;;;5045294;28;20234;-69
2023/06/26 06:00:10;;;;;;;7.88;6.15;;;22.20;99.90;;;;;;5050321;28;20293;-72
2023/06/26 06:02:37;;;;;;;8.30;6.40;;;22.20;99.90;;;;;;5049454;28;20207;-68
2023/06/26 06:05:04;;;;;;;6.55;5.25;;;22.30;99.90;;;;;;5050385;28;20249;-68
2023/06/26 06:07:32;;;;;;;6.57;5.93;;;22.40;99.90;;;;;;5050046;28;20270;-67
2023/06/26 06:09:59;;;;;;;10.55;6.25;;;22.50;99.90;;;;;;5050079;28;20234;-67
2023/06/26 06:12:26;;;;;;;8.20;5.78;;;22.30;99.90;;;;;;5049748;28;20249;-68
2023/06/26 06:14:53;;;;;;;9.77;5.93;;;22.30;99.90;;;;;;5050055;28;20243;-68
2023/06/26 06:17:21;;;;;;;8.05;6.15;;;22.40;99.90;;;;;;5049306;28;20796;-68
2023/06/26 06:19:48;;;;;;;8.80;5.53;;;22.30;99.90;;;;;;5050243;28;20238;-70
2023/06/26 06:22:16;;;;;;;9.63;5.22;;;22.30;99.90;;;;;;5050351;28;20198;-69
2023/06/26 06:24:43;;;;;;;6.85;5.13;;;22.20;99.90;;;;;;5049873;28;20202;-76
2023/06/26 06:27:10;;;;;;;6.30;5.68;;;22.30;99.90;;;;;;5049928;28;20607;-76
2023/06/26 06:29:37;;;;;;;9.10;7.00;;;22.40;99.90;;;;;;5049424;28;21017;-70
2023/06/26 06:32:05;;;;;;;7.68;5.68;;;22.50;99.90;;;;;;5049288;28;20238;-69
2023/06/26 06:34:33;;;;;;;12.43;7.45;;;22.60;99.90;;;;;;5049722;28;20249;-70
2023/06/26 06:37:00;;;;;;;7.53;6.07;;;22.60;99.90;;;;;;5050062;28;20235;-71
2023/06/26 06:39:27;;;;;;;8.45;5.93;;;22.70;99.90;;;;;;5049540;28;20246;-70
2023/06/26 06:41:53;;;;;;;7.10;5.22;;;22.70;99.90;;;;;;5050190;28;20218;-77
2023/06/26 06:44:21;;;;;;;8.65;6.00;;;22.60;99.90;;;;;;5048174;28;20231;-70
2023/06/26 06:46:48;;;;;;;6.22;5.63;;;22.60;99.90;;;;;;5049563;28;20203;-71
2023/06/26 06:49:15;;;;;;;8.73;5.32;;;22.60;99.90;;;;;;5050016;28;20242;-70
2023/06/26 06:51:43;;;;;;;8.45;5.05;;;22.70;99.90;;;;;;5048885;28;20246;-71
2023/06/26 06:54:10;;;;;;;7.63;5.32;;;22.80;99.90;;;;;;5049526;28;20207;-72
2023/06/26 06:56:37;;;;;;;6.70;4.40;;;22.40;99.90;;;;;;5048626;28;20691;-72
2023/06/26 06:59:04;;;;;;;6.32;4.72;;;22.10;99.90;;;;;;5043133;28;20241;-73
2023/06/26 07:01:30;;;;;;;5.75;5.07;;;22.20;99.90;;;;;;5051968;28;20663;-72
2023/06/26 07:03:57;;;;;;;6.18;5.03;;;22.10;99.90;;;;;;5052771;28;20234;-67
2023/06/26 07:06:24;;;;;;;16.58;5.97;;;22.10;99.90;;;;;;5050165;28;20246;-72
2023/06/26 07:08:52;;;;;;;6.28;4.90;;;22.10;99.90;;;;;;5051482;28;20273;-71
2023/06/26 07:11:19;;;;;;;5.97;4.60;;;22.20;99.90;;;;;;5051941;28;20655;-71
2023/06/26 07:13:46;;;;;;;5.55;5.03;;;22.40;99.90;;;;;;5051115;28;20238;-75
2023/06/26 07:16:14;;;;;;;5.35;4.82;;;22.40;99.90;;;;;;5049855;28;20650;-71
2023/06/26 07:18:41;;;;;;;6.22;4.50;;;22.50;99.90;;;;;;5052405;28;20211;-74
2023/06/26 07:21:09;;;;;;;10.23;4.80;;;22.40;99.90;;;;;;5052953;28;20656;-73
2023/06/26 07:23:36;;;;;;;6.15;5.18;;;22.40;99.90;;;;;;5051698;28;20203;-73
2023/06/26 07:26:04;;;;;;;5.20;4.45;;;22.40;99.90;;;;;;5051168;28;20337;-71
2023/06/26 07:28:31;;;;;;;4.93;4.45;;;22.60;99.90;;;;;;5044939;28;20321;-76
2023/06/26 07:30:58;;;;;;;10.00;4.80;;;22.70;99.90;;;;;;5052396;28;20238;-73
2023/06/26 07:33:25;;;;;;;7.03;4.90;;;22.60;99.90;;;;;;5052284;28;20247;-74
2023/06/26 07:35:52;;;;;;;7.15;4.65;;;22.70;99.90;;;;;;5051322;28;20250;-76
2023/06/26 07:38:19;;;;;;;7.90;4.78;;;22.80;99.90;;;;;;5049755;28;20646;-74
2023/06/26 07:40:46;;;;;;;5.97;4.95;;;22.80;99.90;;;;;;5051513;28;20242;-73
2023/06/26 07:43:14;;;;;;;5.30;4.57;;;22.70;99.90;;;;;;5050997;28;20622;-74
2023/06/26 07:45:41;;;;;;;7.68;4.95;;;22.90;99.90;;;;;;5049637;28;20249;-74
2023/06/26 07:48:08;;;;;;;7.25;4.82;;;23.00;99.90;;;;;;5052512;28;20325;-72
2023/06/26 07:50:35;;;;;;;9.15;5.28;;;23.10;99.90;;;;;;5052330;28;20207;-75
2023/06/26 07:53:02;;;;;;;4.57;4.18;;;23.20;99.90;;;;;;5052219;28;20713;-74
2023/06/26 07:55:29;;;;;;;5.88;4.53;;;22.90;99.90;;;;;;5049955;28;20207;-74
2023/06/26 07:57:56;;;;;;;4.55;4.05;;;23.10;99.90;;;;;;5052481;28;20211;-76
2023/06/26 08:00:26;;;;;;;6.28;4.30;;;23.20;99.90;;;;;;5051712;28;20234;-75
2023/06/26 08:02:53;;;;;;;7.40;5.30;;;23.30;99.90;;;;;;5051678;28;20584;-76
2023/06/26 08:05:20;;;;;;;6.53;5.20;;;23.50;99.90;;;;;;5050543;28;20230;-73
2023/06/26 08:07:47;;;;;;;5.78;4.22;;;23.60;99.90;;;;;;5050898;28;20664;-75
2023/06/26 08:10:13;;;;;;;9.90;5.30;;;23.40;99.90;;;;;;5052388;28;20691;-74
2023/06/26 08:12:42;;;;;;;4.78;4.22;;;23.30;99.90;;;;;;5051692;28;20249;-73
2023/06/26 08:15:10;;;;;;;7.47;4.50;;;23.50;99.90;;;;;;5052216;28;20217;-74
2023/06/26 08:17:38;;;;;;;7.38;5.68;;;23.50;99.90;;;;;;5051592;28;20211;-74
2023/06/26 08:20:08;;;;;;;5.38;4.82;;;23.40;99.90;;;;;;5050891;28;20235;-74
2023/06/26 08:22:35;;;;;;;7.20;4.65;;;23.50;99.90;;;;;;5044084;28;20616;-75
2023/06/26 08:25:03;;;;;;;7.70;4.90;;;23.70;99.90;;;;;;5047059;28;20238;-72
2023/06/26 08:27:30;;;;;;;6.60;4.78;;;24.00;99.90;;;;;;5050012;28;20203;-74
2023/06/26 08:29:57;;;;;;;5.00;4.60;;;24.20;99.90;;;;;;5051724;28;20233;-76
2023/06/26 08:32:25;;;;;;;7.88;4.85;;;24.30;99.90;;;;;;5051245;28;20294;-72
2023/06/26 08:34:53;;;;;;;6.38;4.93;;;24.00;99.90;;;;;;5050987;28;20199;-75
2023/06/26 08:37:20;;;;;;;5.80;4.28;;;24.10;99.90;;;;;;5050789;28;20694;-71
2023/06/26 08:39:47;;;;;;;11.13;5.00;;;23.90;99.90;;;;;;5047642;28;20235;-72
2023/06/26 08:42:14;;;;;;;6.18;4.53;;;23.80;99.90;;;;;;5051689;28;20239;-75
2023/06/26 08:44:41;;;;;;;6.07;4.50;;;24.00;99.90;;;;;;5046989;28;20655;-76
2023/06/26 08:47:08;;;;;;;9.52;4.80;;;24.10;99.90;;;;;;5050981;28;20245;-72
2023/06/26 08:49:43;;;;;;;7.20;4.90;;;24.40;99.90;;;;;;5050802;28;20320;-79
2023/06/26 08:52:17;;;;;;;7.40;4.63;;;24.60;99.90;;;;;;5050037;28;20241;-73
2023/06/26 08:54:49;;;;;;;9.20;4.90;;;24.80;99.90;;;;;;5051705;28;20254;-74
2023/06/26 08:57:19;;;;;;;4.75;4.35;;;24.60;99.90;;;;;;5050016;28;20238;-74
2023/06/26 08:59:47;;;;;;;5.30;3.80;;;24.60;99.90;;;;;;5050270;28;20215;-76
2023/06/26 09:02:15;;;;;;;4.72;4.05;;;24.70;99.90;;;;;;5048131;28;20675;-72
2023/06/26 09:04:42;;;;;;;8.05;4.50;;;24.90;99.90;;;;;;5050183;28;20651;-73
2023/06/26 09:07:09;;;;;;;6.60;4.63;;;24.90;99.90;;;;;;5050024;28;20241;-73
2023/06/26 09:09:37;;;;;;;4.75;4.10;;;24.90;99.90;;;;;;5050454;28;20238;-73
2023/06/26 09:12:05;;;;;;;4.30;3.95;;;24.90;99.90;;;;;;5050493;28;20211;-75
2023/06/26 09:14:32;;;;;;;4.63;3.92;;;25.10;99.90;;;;;;5050545;28;20697;-73
2023/06/26 09:16:59;;;;;;;5.95;4.32;;;25.10;99.90;;;;;;5051002;28;20247;-72
2023/06/26 09:19:27;;;;;;;5.57;4.35;;;25.20;99.90;;;;;;5050759;28;20288;-73
2023/06/26 09:21:55;;;;;;;5.07;4.45;;;25.20;99.90;;;;;;5050977;28;20242;-75
2023/06/26 09:24:23;;;;;;;5.68;4.68;;;25.30;99.90;;;;;;5050355;28;20211;-74
2023/06/26 09:26:52;;;;;;;8.32;4.15;;;25.20;99.90;;;;;;5050613;28;20238;-73
2023/06/26 09:29:20;;;;;;;5.25;4.75;;;24.90;99.90;;;;;;5050570;28;20359;-73
2023/06/26 09:31:47;;;;;;;10.85;4.97;;;24.90;99.90;;;;;;5051387;28;20249;-73
2023/06/26 09:34:14;;;;;;;5.80;4.90;;;24.60;99.90;;;;;;5051286;28;20284;-73
2023/06/26 09:36:46;;;;;;;8.63;6.70;;;24.00;99.90;;;;;;5050424;28;20670;-75
2023/06/26 09:39:14;;;;;;;7.78;5.57;;;23.70;99.90;;;;;;5050574;28;20210;-73
2023/06/26 09:41:43;;;;;;;6.18;4.57;;;23.70;99.90;;;;;;5050378;28;20207;-73
2023/06/26 09:44:12;;;;;;;7.97;4.35;;;23.90;99.90;;;;;;5050240;28;20210;-73
2023/06/26 09:46:39;;;;;;;5.22;4.30;;;24.20;99.90;;;;;;5050084;28;20238;-73
2023/06/26 09:49:08;;;;;;;5.20;4.70;;;24.10;99.90;;;;;;5047488;28;20262;-72
2023/06/26 09:51:36;;;;;;;11.38;4.43;;;24.10;99.90;;;;;;5049474;28;20686;-72
2023/06/26 09:54:04;;;;;;;6.05;5.10;;;24.00;99.90;;;;;;5050229;28;20234;-71
2023/06/26 09:56:32;;;;;;;7.20;4.60;;;23.70;99.90;;;;;;5050083;28;20251;-74
2023/06/26 09:59:00;;;;;;;4.90;4.50;;;23.70;99.90;;;;;;5045051;28;21169;-72
2023/06/26 10:01:30;;;;;;;7.15;5.10;;;23.70;99.90;;;;;;5049812;28;20213;-71
2023/06/26 10:03:57;;;;;;;5.30;4.80;;;23.70;99.90;;;;;;5048469;28;20203;-70
2023/06/26 10:06:29;;;;;;;6.28;4.20;;;23.90;99.90;;;;;;5048818;28;20588;-69
2023/06/26 10:08:57;;;;;;;5.78;4.05;;;24.00;99.90;;;;;;5048584;28;20226;-69
2023/06/26 10:11:26;;;;;;;5.90;4.78;;;24.00;99.90;;;;;;5048690;28;20233;-69
2023/06/26 10:13:54;;;;;;;6.93;4.78;;;24.00;99.90;;;;;;5049116;28;20235;-67
2023/06/26 10:16:26;;;;;;;6.75;4.60;;;24.10;99.90;;;;;;5044961;28;20210;-68
2023/06/26 10:19:00;;;;;;;8.10;4.20;;;23.90;99.90;;;;;;5050011;28;20238;-68
2023/06/26 10:21:30;;;;;;;5.90;4.03;;;24.00;99.90;;;;;;5048463;28;20234;-68
2023/06/26 10:23:58;;;;;;;6.45;4.97;;;23.90;99.90;;;;;;5048308;28;20234;-68
2023/06/26 10:26:25;;;;;;;8.38;4.07;;;24.10;99.90;;;;;;5049757;28;20242;-68
2023/06/26 10:28:54;;;;;;;8.68;4.82;;;24.10;99.90;;;;;;5049958;28;20797;-68
2023/06/26 10:31:24;;;;;;;6.47;4.70;;;24.10;99.90;;;;;;5052737;28;20273;-69
2023/06/26 10:33:51;;;;;;;6.85;4.43;;;24.20;99.90;;;;;;5054284;28;20245;-68
2023/06/26 10:36:21;;;;;;;4.65;4.20;;;24.20;99.90;;;;;;5050923;28;20249;-68
2023/06/26 10:38:52;;;;;;;9.02;4.82;;;24.30;99.90;;;;;;5053966;28;20594;-68
2023/06/26 10:41:23;;;;;;;6.28;3.90;;;24.20;99.90;;;;;;5053608;28;20574;-68
2023/06/26 10:43:51;;;;;;;8.98;6.35;;;24.20;99.90;;;;;;5054104;28;20203;-68
2023/06/26 10:46:23;;;;;;;6.55;4.55;;;24.40;99.90;;;;;;5053909;28;20213;-68
2023/06/26 10:48:59;;;;;;;5.35;4.03;;;24.40;99.90;;;;;;5054220;28;20262;-78
2023/06/26 10:51:28;;;;;;;4.50;4.05;;;24.40;99.90;;;;;;5052465;28;20210;-68
2023/06/26 10:53:56;;;;;;;7.15;3.35;;;24.40;99.90;;;;;;5041983;28;20293;-69
2023/06/26 10:56:42;;;;;;;5.22;4.10;;;24.40;99.90;;;;;;5053226;28;20211;-68
2023/06/26 10:59:20;;;;;;;6.78;5.05;;;24.40;99.90;;;;;;5042530;28;20242;-68
2023/06/26 11:01:55;;;;;;;11.13;5.45;;;24.40;99.90;;;;;;5053551;28;20271;-67
2023/06/26 11:04:37;;;;;;;5.05;3.92;;;24.10;99.90;;;;;;5053256;28;20289;-68
2023/06/26 11:07:20;;;;;;;5.72;4.55;;;24.00;99.90;;;;;;5052870;28;20206;-68
2023/06/26 11:10:01;;;;;;;5.03;4.40;;;24.00;99.90;;;;;;5053043;28;20266;-68
2023/06/26 11:12:38;;;;;;;9.48;5.00;;;23.90;99.90;;;;;;5049732;28;20238;-67
2023/06/26 11:15:09;;;;;;;5.03;4.47;;;23.80;99.90;;;;;;5047141;28;20241;-71
2023/06/26 11:17:37;;;;;;;5.05;4.55;;;23.80;99.90;;;;;;5041397;28;20385;-67
2023/06/26 11:20:05;;;;;;;5.47;4.03;;;23.80;99.90;;;;;;5046569;28;20203;-68
2023/06/26 11:22:36;;;;;;;4.95;3.95;;;24.00;99.90;;;;;;5051329;28;20207;-68
2023/06/26 11:25:03;;;;;;;5.53;3.63;;;24.20;99.90;;;;;;5051688;28;20261;-67
2023/06/26 11:27:38;;;;;;;6.18;3.75;;;24.30;99.90;;;;;;5051763;28;20222;-67
2023/06/26 11:30:07;;;;;;;3.40;2.75;;;24.80;99.90;;;;;;5053180;28;20270;-68
2023/06/26 11:32:34;;;;;;;4.90;3.03;;;25.10;99.90;;;;;;5052902;28;20249;-67
2023/06/26 11:35:01;;;;;;;3.05;2.60;;;25.10;99.90;;;;;;5053191;28;20326;-81
2023/06/26 11:37:28;;;;;;;2.72;2.53;;;25.20;99.90;;;;;;5052665;28;20207;-67
2023/06/26 11:39:56;;;;;;;3.70;3.40;;;25.20;99.90;;;;;;5052969;28;20234;-67
2023/06/26 11:42:25;;;;;;;4.78;3.53;;;25.30;99.90;;;;;;5051344;28;20661;-67
2023/06/26 11:44:53;;;;;;;3.47;3.17;;;25.30;99.90;;;;;;5051501;28;20561;-67
2023/06/26 11:47:22;;;;;;;3.75;3.45;;;25.30;99.90;;;;;;5052678;28;20700;-68
2023/06/26 11:49:50;;;;;;;3.75;3.45;;;25.40;99.90;;;;;;5052448;28;20245;-67
2023/06/26 11:52:17;;;;;;;6.68;4.93;;;25.40;99.90;;;;;;5052844;28;20253;-68
2023/06/26 11:54:45;;;;;;;4.55;4.15;;;25.20;99.90;;;;;;5052725;28;20254;-67
2023/06/26 11:57:17;;;;;;;4.05;3.75;;;25.10;99.90;;;;;;5053351;28;20206;-68
2023/06/26 11:59:44;;;;;;;5.15;4.65;;;25.10;99.90;;;;;;5048586;28;20202;-68
2023/06/26 12:02:14;;;;;;;5.82;4.55;;;25.00;99.90;;;;;;5038686;28;20234;-68
2023/06/26 12:04:43;;;;;;;5.72;5.20;;;25.20;99.90;;;;;;5052001;28;20261;-72
2023/06/26 12:07:11;;;;;;;5.65;4.57;;;25.30;99.90;;;;;;5052380;28;20257;-67
2023/06/26 12:09:43;;;;;;;6.82;5.07;;;25.10;99.90;;;;;;5052217;28;20238;-71
2023/06/26 12:12:11;;;;;;;4.90;4.40;;;25.30;99.90;;;;;;5052185;28;20243;-68
2023/06/26 12:14:41;;;;;;;6.28;3.92;;;25.50;99.90;;;;;;5052062;28;20242;-67
2023/06/26 12:17:11;;;;;;;5.93;4.60;;;25.50;99.90;;;;;;5052344;28;20217;-68
2023/06/26 12:19:38;;;;;;;5.03;4.63;;;25.60;99.90;;;;;;5051683;28;20592;-68
2023/06/26 12:22:08;;;;;;;5.82;5.25;;;25.60;99.90;;;;;;5051999;28;20206;-67
2023/06/26 12:24:37;;;;;;;5.22;4.53;;;25.30;99.90;;;;;;5051901;28;20246;-68
2023/06/26 12:27:09;;;;;;;6.53;4.70;;;25.20;99.90;;;;;;5051961;28;20546;-68
2023/06/26 12:29:36;;;;;;;4.55;4.03;;;25.30;99.90;;;;;;5051583;28;20668;-67
2023/06/26 12:32:09;;;;;;;5.78;4.55;;;25.50;99.90;;;;;;5052098;28;20290;-68
2023/06/26 12:34:38;;;;;;;6.53;4.30;;;25.60;99.90;;;;;;5051295;28;20203;-68
2023/06/26 12:37:06;;;;;;;8.93;5.47;;;25.60;99.90;;;;;;5052110;28;20690;-67
2023/06/26 12:39:46;;;;;;;6.63;5.78;;;25.70;99.90;;;;;;5051596;28;20317;-68
2023/06/26 12:42:16;;;;;;;5.80;4.82;;;25.70;99.90;;;;;;5052052;28;20242;-68
2023/06/26 12:44:43;;;;;;;5.43;4.90;;;25.80;99.90;;;;;;5051392;28;20253;-67
2023/06/26 12:47:13;;;;;;;5.95;4.90;;;26.00;99.90;;;;;;5051611;28;20253;-68
2023/06/26 12:49:41;;;;;;;14.85;6.68;;;25.70;99.90;;;;;;5051309;28;20282;-67
2023/06/26 12:52:11;;;;;;;8.10;5.68;;;25.70;99.90;;;;;;5051768;28;20598;-67